Ft Sturla — IBXV — position and weather

sailwx.info

Track history (hours):
 
Tides and Currents Weather Stations Pressure Air Temp Water Temp Dewpoint Dewpoint Depression Visibility Wind Speed Wind Dir Waves Ship Positions

Ft Sturla

Last reported at 2017-Feb-04 11:29 UTC. Time now 2017-Feb-19 16:47 UTC.
Position N 36°36' E 015°14'.
Warning: this ship's position is 15 days out of date.

Length 120 m; draft 5.5 m.

Type: Ship. MMSI: 247282200.

Date/timePositionNaut miles runAvg speedWind from/ knotsBaromVisibWave heightAir tempDewpointWater temp
2017-Feb-04 11:29N 36°36' E 015°14'8 7.9
2017-Feb-04 10:27N 36°34' E 015°04'7 8.2
2017-Feb-04 09:33N 36°35' E 014°55'8 8.1
2017-Feb-04 08:33N 36°37' E 014°45'8 7.4
2017-Feb-04 07:27N 36°39' E 014°36'8 7.3
2017-Feb-04 06:20N 36°42' E 014°26'6 7.2
2017-Feb-04 05:33N 36°45' E 014°20'7 7.0
2017-Feb-04 04:33N 36°48' E 014°12'7 6.8
2017-Feb-04 03:33N 36°51' E 014°05'7 6.9
2017-Feb-04 02:33N 36°54' E 013°57'7 7.2
2017-Feb-04 01:33N 36°58' E 013°49'7 7.1
2017-Feb-04 00:33N 37°01' E 013°41'  
2017-Jan-26 14:29N 43°09' E 009°16'183 9.6
2017-Jan-25 19:33N 43°07' E 005°06'1510.6
2017-Jan-25 18:09N 43°21' E 004°58'3 5.3
2017-Jan-25 17:32N 43°24' E 004°60'0 0.0
2017-Jan-25 16:32N 43°24' E 004°60'0 0.0
2017-Jan-25 15:32N 43°24' E 004°60'0 0.0
2017-Jan-25 14:32N 43°24' E 004°60'0 0.0
2017-Jan-25 13:32N 43°24' E 004°60'0 0.0
2017-Jan-25 12:32N 43°24' E 004°60'0 0.0
2017-Jan-25 11:32N 43°24' E 004°60'  
Track history (hours):
 
Tides and Currents Weather Stations Pressure Air Temp Water Temp Dewpoint Dewpoint Depression Visibility Wind Speed Wind Dir Waves Ship Positions

Ft Sturla

Last reported at 2017-Feb-04 11:29 UTC. Time now 2017-Feb-19 16:47 UTC.
Position N 36°36' E 015°14'.
Warning: this ship's position is 15 days out of date.

Length 120 m; draft 5.5 m.

Type: Ship. MMSI: 247282200.

Date/timePositionNaut miles runAvg speedWind from/ knotsBaromVisibWave heightAir tempDewpointWater temp
2017-Feb-04 11:29N 36°36' E 015°14'8 7.9
2017-Feb-04 10:27N 36°34' E 015°04'7 8.2
2017-Feb-04 09:33N 36°35' E 014°55'8 8.1
2017-Feb-04 08:33N 36°37' E 014°45'8 7.4
2017-Feb-04 07:27N 36°39' E 014°36'8 7.3
2017-Feb-04 06:20N 36°42' E 014°26'6 7.2
2017-Feb-04 05:33N 36°45' E 014°20'7 7.0
2017-Feb-04 04:33N 36°48' E 014°12'7 6.8
2017-Feb-04 03:33N 36°51' E 014°05'7 6.9
2017-Feb-04 02:33N 36°54' E 013°57'7 7.2
2017-Feb-04 01:33N 36°58' E 013°49'7 7.1
2017-Feb-04 00:33N 37°01' E 013°41'  
2017-Jan-26 14:29N 43°09' E 009°16'183 9.6
2017-Jan-25 19:33N 43°07' E 005°06'1510.6
2017-Jan-25 18:09N 43°21' E 004°58'3 5.3
2017-Jan-25 17:32N 43°24' E 004°60'0 0.0
2017-Jan-25 16:32N 43°24' E 004°60'0 0.0
2017-Jan-25 15:32N 43°24' E 004°60'0 0.0
2017-Jan-25 14:32N 43°24' E 004°60'0 0.0
2017-Jan-25 13:32N 43°24' E 004°60'0 0.0
2017-Jan-25 12:32N 43°24' E 004°60'0 0.0
2017-Jan-25 11:32N 43°24' E 004°60'  

Dump ship's entire track history